sensor_id;sensor_type;location;lat;lon;timestamp;temperature;humidity
11736;DHT22;5924;51.398;7.088;2022-09-25T00:01:11;13.00;99.90
11736;DHT22;5924;51.398;7.088;2022-09-25T00:03:38;14.20;99.90
11736;DHT22;5924;51.398;7.088;2022-09-25T00:06:15;13.70;99.90
11736;DHT22;5924;51.398;7.088;2022-09-25T00:08:42;12.80;99.90
11736;DHT22;5924;51.398;7.088;2022-09-25T00:11:14;13.10;99.90
11736;DHT22;5924;51.398;7.088;2022-09-25T00:13:41;12.80;99.90
11736;DHT22;5924;51.398;7.088;2022-09-25T00:16:09;13.00;99.90
11736;DHT22;5924;51.398;7.088;2022-09-25T00:18:35;13.50;99.90
11736;DHT22;5924;51.398;7.088;2022-09-25T00:21:19;12.70;99.90
11736;DHT22;5924;51.398;7.088;2022-09-25T00:23:45;12.70;99.90
11736;DHT22;5924;51.398;7.088;2022-09-25T00:26:13;12.70;99.90
11736;DHT22;5924;51.398;7.088;2022-09-25T00:28:40;12.80;99.90
11736;DHT22;5924;51.398;7.088;2022-09-25T00:31:07;13.80;99.90
11736;DHT22;5924;51.398;7.088;2022-09-25T00:33:34;13.00;99.90
11736;DHT22;5924;51.398;7.088;2022-09-25T00:36:04;13.60;99.90
11736;DHT22;5924;51.398;7.088;2022-09-25T00:38:32;12.60;99.90
11736;DHT22;5924;51.398;7.088;2022-09-25T00:40:59;12.60;99.90
11736;DHT22;5924;51.398;7.088;2022-09-25T00:43:42;12.60;99.90
11736;DHT22;5924;51.398;7.088;2022-09-25T00:46:29;12.60;99.90
11736;DHT22;5924;51.398;7.088;2022-09-25T00:51:44;12.50;99.90
11736;DHT22;5924;51.398;7.088;2022-09-25T00:54:17;12.60;99.90
11736;DHT22;5924;51.398;7.088;2022-09-25T00:56:47;13.40;99.90
11736;DHT22;5924;51.398;7.088;2022-09-25T00:59:17;12.60;99.90
11736;DHT22;5924;51.398;7.088;2022-09-25T01:01:45;12.60;99.90
11736;DHT22;5924;51.398;7.088;2022-09-25T01:04:11;15.10;99.90
11736;DHT22;5924;51.398;7.088;2022-09-25T01:06:38;15.30;99.90
11736;DHT22;5924;51.398;7.088;2022-09-25T01:09:04;12.50;99.90
11736;DHT22;5924;51.398;7.088;2022-09-25T01:11:29;12.50;99.90
11736;DHT22;5924;51.398;7.088;2022-09-25T01:13:57;12.50;99.90
11736;DHT22;5924;51.398;7.088;2022-09-25T01:19:21;12.40;99.90
11736;DHT22;5924;51.398;7.088;2022-09-25T01:22:10;12.40;99.90
11736;DHT22;5924;51.398;7.088;2022-09-25T01:25:03;12.40;99.90
11736;DHT22;5924;51.398;7.088;2022-09-25T01:27:44;12.40;99.90
11736;DHT22;5924;51.398;7.088;2022-09-25T01:30:17;12.40;99.90
11736;DHT22;5924;51.398;7.088;2022-09-25T01:32:51;12.40;99.90
11736;DHT22;5924;51.398;7.088;2022-09-25T01:43:35;12.80;99.90
11736;DHT22;5924;51.398;7.088;2022-09-25T01:46:21;12.30;99.90
11736;DHT22;5924;51.398;7.088;2022-09-25T01:48:56;12.30;99.90
11736;DHT22;5924;51.398;7.088;2022-09-25T01:51:29;12.40;99.90
11736;DHT22;5924;51.398;7.088;2022-09-25T01:54:02;12.20;99.90
11736;DHT22;5924;51.398;7.088;2022-09-25T01:56:37;13.30;99.90
11736;DHT22;5924;51.398;7.088;2022-09-25T02:01:51;12.10;99.90
11736;DHT22;5924;51.398;7.088;2022-09-25T02:04:54;12.10;99.90
11736;DHT22;5924;51.398;7.088;2022-09-25T02:07:27;12.60;99.90
11736;DHT22;5924;51.398;7.088;2022-09-25T02:09:57;12.10;99.90
11736;DHT22;5924;51.398;7.088;2022-09-25T02:12:30;11.90;99.90
11736;DHT22;5924;51.398;7.088;2022-09-25T02:15:07;13.50;99.90
11736;DHT22;5924;51.398;7.088;2022-09-25T02:17:55;11.90;99.90
11736;DHT22;5924;51.398;7.088;2022-09-25T02:20:42;11.90;99.90
11736;DHT22;5924;51.398;7.088;2022-09-25T02:23:22;11.90;99.90
11736;DHT22;5924;51.398;7.088;2022-09-25T02:26:01;12.00;99.90
11736;DHT22;5924;51.398;7.088;2022-09-25T02:28:29;11.90;99.90
11736;DHT22;5924;51.398;7.088;2022-09-25T02:30:56;11.90;99.90
11736;DHT22;5924;51.398;7.088;2022-09-25T02:33:24;13.20;99.90
11736;DHT22;5924;51.398;7.088;2022-09-25T02:35:51;12.80;99.90
11736;DHT22;5924;51.398;7.088;2022-09-25T02:38:17;13.00;99.90
11736;DHT22;5924;51.398;7.088;2022-09-25T02:41:12;13.10;99.90
11736;DHT22;5924;51.398;7.088;2022-09-25T02:46:12;12.90;99.90
11736;DHT22;5924;51.398;7.088;2022-09-25T02:48:53;11.80;99.90
11736;DHT22;5924;51.398;7.088;2022-09-25T02:54:16;11.80;99.90
11736;DHT22;5924;51.398;7.088;2022-09-25T02:56:55;11.80;99.90
11736;DHT22;5924;51.398;7.088;2022-09-25T02:59:27;12.30;99.90
11736;DHT22;5924;51.398;7.088;2022-09-25T03:01:57;11.80;99.90
11736;DHT22;5924;51.398;7.088;2022-09-25T03:04:24;11.80;99.90
11736;DHT22;5924;51.398;7.088;2022-09-25T03:06:51;11.80;99.90
11736;DHT22;5924;51.398;7.088;2022-09-25T03:09:19;14.00;99.90
11736;DHT22;5924;51.398;7.088;2022-09-25T03:11:46;13.00;99.90
11736;DHT22;5924;51.398;7.088;2022-09-25T03:14:15;12.70;99.90
11736;DHT22;5924;51.398;7.088;2022-09-25T03:16:52;13.80;99.90
11736;DHT22;5924;51.398;7.088;2022-09-25T03:19:21;11.90;99.90
11736;DHT22;5924;51.398;7.088;2022-09-25T03:21:50;11.70;99.90
11736;DHT22;5924;51.398;7.088;2022-09-25T03:24:16;14.70;99.90
11736;DHT22;5924;51.398;7.088;2022-09-25T03:26:42;12.90;99.90
11736;DHT22;5924;51.398;7.088;2022-09-25T03:29:09;13.10;99.90
11736;DHT22;5924;51.398;7.088;2022-09-25T03:31:36;12.20;99.90
11736;DHT22;5924;51.398;7.088;2022-09-25T03:34:02;11.80;99.90
11736;DHT22;5924;51.398;7.088;2022-09-25T03:36:29;12.40;99.90
11736;DHT22;5924;51.398;7.088;2022-09-25T03:38:56;12.40;99.90
11736;DHT22;5924;51.398;7.088;2022-09-25T03:41:28;11.70;99.90
11736;DHT22;5924;51.398;7.088;2022-09-25T03:43:55;11.70;99.90
11736;DHT22;5924;51.398;7.088;2022-09-25T03:46:24;12.40;99.90
11736;DHT22;5924;51.398;7.088;2022-09-25T03:48:50;11.60;99.90
11736;DHT22;5924;51.398;7.088;2022-09-25T03:51:17;12.40;99.90
11736;DHT22;5924;51.398;7.088;2022-09-25T03:53:44;11.50;99.90
11736;DHT22;5924;51.398;7.088;2022-09-25T03:56:15;13.20;99.90
11736;DHT22;5924;51.398;7.088;2022-09-25T03:58:42;11.50;99.90
11736;DHT22;5924;51.398;7.088;2022-09-25T04:01:08;11.40;99.90
11736;DHT22;5924;51.398;7.088;2022-09-25T04:03:35;12.30;99.90
11736;DHT22;5924;51.398;7.088;2022-09-25T04:06:02;12.50;99.90
11736;DHT22;5924;51.398;7.088;2022-09-25T04:08:30;14.20;99.90
11736;DHT22;5924;51.398;7.088;2022-09-25T04:10:57;12.40;99.90
11736;DHT22;5924;51.398;7.088;2022-09-25T04:13:32;12.00;99.90
11736;DHT22;5924;51.398;7.088;2022-09-25T04:15:59;13.50;99.90
11736;DHT22;5924;51.398;7.088;2022-09-25T04:18:26;11.00;99.90
11736;DHT22;5924;51.398;7.088;2022-09-25T04:20:53;13.80;99.90
11736;DHT22;5924;51.398;7.088;2022-09-25T04:23:19;12.90;99.90
11736;DHT22;5924;51.398;7.088;2022-09-25T04:25:44;12.60;99.90
11736;DHT22;5924;51.398;7.088;2022-09-25T04:28:10;11.70;99.90
11736;DHT22;5924;51.398;7.088;2022-09-25T04:30:36;11.00;99.90
11736;DHT22;5924;51.398;7.088;2022-09-25T04:33:01;11.10;99.90
11736;DHT22;5924;51.398;7.088;2022-09-25T04:35:46;10.90;99.90
11736;DHT22;5924;51.398;7.088;2022-09-25T04:38:11;11.30;99.90
11736;DHT22;5924;51.398;7.088;2022-09-25T04:40:37;12.80;99.90
11736;DHT22;5924;51.398;7.088;2022-09-25T04:43:04;12.60;99.90
11736;DHT22;5924;51.398;7.088;2022-09-25T04:45:33;10.80;99.90
11736;DHT22;5924;51.398;7.088;2022-09-25T04:47:59;11.90;99.90
11736;DHT22;5924;51.398;7.088;2022-09-25T04:50:26;10.60;99.90
11736;DHT22;5924;51.398;7.088;2022-09-25T04:52:53;11.40;99.90
11736;DHT22;5924;51.398;7.088;2022-09-25T04:55:20;12.10;99.90
11736;DHT22;5924;51.398;7.088;2022-09-25T04:57:50;10.50;99.90
11736;DHT22;5924;51.398;7.088;2022-09-25T05:00:17;10.30;99.90
11736;DHT22;5924;51.398;7.088;2022-09-25T05:02:44;10.20;99.90
11736;DHT22;5924;51.398;7.088;2022-09-25T05:05:10;12.00;99.90
11736;DHT22;5924;51.398;7.088;2022-09-25T05:07:35;10.80;99.90
11736;DHT22;5924;51.398;7.088;2022-09-25T05:10:01;12.20;99.90
11736;DHT22;5924;51.398;7.088;2022-09-25T05:12:26;11.30;99.90
11736;DHT22;5924;51.398;7.088;2022-09-25T05:14:52;10.00;99.90
11736;DHT22;5924;51.398;7.088;2022-09-25T05:17:18;9.90;99.90
11736;DHT22;5924;51.398;7.088;2022-09-25T05:19:43;12.00;99.90
11736;DHT22;5924;51.398;7.088;2022-09-25T05:22:09;10.00;99.90
11736;DHT22;5924;51.398;7.088;2022-09-25T05:24:35;10.00;99.90
11736;DHT22;5924;51.398;7.088;2022-09-25T05:27:02;9.90;99.90
11736;DHT22;5924;51.398;7.088;2022-09-25T05:29:28;9.90;99.90
11736;DHT22;5924;51.398;7.088;2022-09-25T05:31:53;11.90;99.90
11736;DHT22;5924;51.398;7.088;2022-09-25T05:34:20;10.00;99.90
11736;DHT22;5924;51.398;7.088;2022-09-25T05:36:46;10.80;99.90
11736;DHT22;5924;51.398;7.088;2022-09-25T05:39:11;11.90;99.90
11736;DHT22;5924;51.398;7.088;2022-09-25T05:41:37;9.80;99.90
11736;DHT22;5924;51.398;7.088;2022-09-25T05:44:03;12.00;99.90
11736;DHT22;5924;51.398;7.088;2022-09-25T05:46:34;10.40;99.90
11736;DHT22;5924;51.398;7.088;2022-09-25T05:49:00;10.80;99.90
11736;DHT22;5924;51.398;7.088;2022-09-25T05:51:26;12.60;99.90
11736;DHT22;5924;51.398;7.088;2022-09-25T05:53:53;9.80;99.90
11736;DHT22;5924;51.398;7.088;2022-09-25T05:56:19;12.70;99.90
11736;DHT22;5924;51.398;7.088;2022-09-25T05:58:44;11.30;99.90
11736;DHT22;5924;51.398;7.088;2022-09-25T06:01:11;9.90;99.90
11736;DHT22;5924;51.398;7.088;2022-09-25T06:03:38;9.00;99.90
11736;DHT22;5924;51.398;7.088;2022-09-25T06:06:04;9.90;99.90
11736;DHT22;5924;51.398;7.088;2022-09-25T06:08:31;9.90;99.90
11736;DHT22;5924;51.398;7.088;2022-09-25T06:10:58;10.70;99.90
11736;DHT22;5924;51.398;7.088;2022-09-25T06:13:24;11.90;99.90
11736;DHT22;5924;51.398;7.088;2022-09-25T06:15:51;12.70;99.90
11736;DHT22;5924;51.398;7.088;2022-09-25T06:18:22;11.90;99.90
11736;DHT22;5924;51.398;7.088;2022-09-25T06:20:48;11.70;99.90
11736;DHT22;5924;51.398;7.088;2022-09-25T06:23:14;9.80;99.90
11736;DHT22;5924;51.398;7.088;2022-09-25T06:25:40;11.50;99.90
11736;DHT22;5924;51.398;7.088;2022-09-25T06:28:06;10.40;99.90
11736;DHT22;5924;51.398;7.088;2022-09-25T06:30:34;12.10;99.90
11736;DHT22;5924;51.398;7.088;2022-09-25T06:33:01;12.00;99.90
11736;DHT22;5924;51.398;7.088;2022-09-25T06:35:29;9.80;99.90
11736;DHT22;5924;51.398;7.088;2022-09-25T06:37:59;9.80;99.90
11736;DHT22;5924;51.398;7.088;2022-09-25T06:40:26;9.80;99.90
11736;DHT22;5924;51.398;7.088;2022-09-25T06:43:04;11.60;99.90
11736;DHT22;5924;51.398;7.088;2022-09-25T06:45:32;10.60;99.90
11736;DHT22;5924;51.398;7.088;2022-09-25T06:48:12;9.80;99.90
11736;DHT22;5924;51.398;7.088;2022-09-25T06:50:52;11.30;99.90
11736;DHT22;5924;51.398;7.088;2022-09-25T06:53:21;9.80;99.90
11736;DHT22;5924;51.398;7.088;2022-09-25T06:55:47;10.20;99.90
11736;DHT22;5924;51.398;7.088;2022-09-25T06:58:16;10.80;99.90
11736;DHT22;5924;51.398;7.088;2022-09-25T07:00:48;10.00;99.90
11736;DHT22;5924;51.398;7.088;2022-09-25T07:03:14;10.00;99.90
11736;DHT22;5924;51.398;7.088;2022-09-25T07:06:00;10.60;99.90
11736;DHT22;5924;51.398;7.088;2022-09-25T07:08:26;10.10;99.90
11736;DHT22;5924;51.398;7.088;2022-09-25T07:10:53;10.20;99.90
11736;DHT22;5924;51.398;7.088;2022-09-25T07:13:22;10.30;99.90
11736;DHT22;5924;51.398;7.088;2022-09-25T07:16:06;10.80;99.90
11736;DHT22;5924;51.398;7.088;2022-09-25T07:18:33;10.50;99.90
11736;DHT22;5924;51.398;7.088;2022-09-25T07:21:04;12.10;99.90
11736;DHT22;5924;51.398;7.088;2022-09-25T07:23:30;10.80;99.90
11736;DHT22;5924;51.398;7.088;2022-09-25T07:26:08;10.80;99.90
11736;DHT22;5924;51.398;7.088;2022-09-25T07:28:36;10.90;99.90
11736;DHT22;5924;51.398;7.088;2022-09-25T07:31:38;11.00;99.90
11736;DHT22;5924;51.398;7.088;2022-09-25T07:34:04;11.00;99.90
11736;DHT22;5924;51.398;7.088;2022-09-25T07:36:37;11.90;99.90
11736;DHT22;5924;51.398;7.088;2022-09-25T07:39:04;11.20;99.90
11736;DHT22;5924;51.398;7.088;2022-09-25T07:41:29;11.30;99.90
11736;DHT22;5924;51.398;7.088;2022-09-25T07:43:56;12.60;99.90
11736;DHT22;5924;51.398;7.088;2022-09-25T07:46:23;11.40;99.90
11736;DHT22;5924;51.398;7.088;2022-09-25T07:48:49;11.40;99.90
11736;DHT22;5924;51.398;7.088;2022-09-25T07:51:16;12.10;99.90
11736;DHT22;5924;51.398;7.088;2022-09-25T07:53:41;12.80;99.90
11736;DHT22;5924;51.398;7.088;2022-09-25T07:56:12;13.70;99.90
11736;DHT22;5924;51.398;7.088;2022-09-25T07:58:39;11.40;99.90
11736;DHT22;5924;51.398;7.088;2022-09-25T08:01:07;12.60;99.90
11736;DHT22;5924;51.398;7.088;2022-09-25T08:03:34;11.40;97.30
11736;DHT22;5924;51.398;7.088;2022-09-25T08:06:04;12.80;97.40
11736;DHT22;5924;51.398;7.088;2022-09-25T08:08:32;11.60;96.10
11736;DHT22;5924;51.398;7.088;2022-09-25T08:10:59;12.30;93.20
11736;DHT22;5924;51.398;7.088;2022-09-25T08:13:26;12.70;90.20
11736;DHT22;5924;51.398;7.088;2022-09-25T08:15:51;13.70;87.50
11736;DHT22;5924;51.398;7.088;2022-09-25T08:18:17;14.40;86.30
11736;DHT22;5924;51.398;7.088;2022-09-25T08:20:42;12.00;74.00
11736;DHT22;5924;51.398;7.088;2022-09-25T08:23:08;12.10;60.20
11736;DHT22;5924;51.398;7.088;2022-09-25T08:25:34;12.10;46.40
11736;DHT22;5924;51.398;7.088;2022-09-25T08:27:59;13.20;30.10
11736;DHT22;5924;51.398;7.088;2022-09-25T08:30:28;12.40;27.20
11736;DHT22;5924;51.398;7.088;2022-09-25T08:32:54;12.70;1.00
11736;DHT22;5924;51.398;7.088;2022-09-25T08:35:19;13.40;1.00
11736;DHT22;5924;51.398;7.088;2022-09-25T08:37:46;14.20;1.00
11736;DHT22;5924;51.398;7.088;2022-09-25T08:40:17;13.70;1.00
11736;DHT22;5924;51.398;7.088;2022-09-25T08:42:45;13.90;1.00
11736;DHT22;5924;51.398;7.088;2022-09-25T08:48:12;14.40;1.00
11736;DHT22;5924;51.398;7.088;2022-09-25T08:50:59;14.60;1.00
11736;DHT22;5924;51.398;7.088;2022-09-25T08:53:30;14.70;99.90
11736;DHT22;5924;51.398;7.088;2022-09-25T08:55:58;14.70;99.90
11736;DHT22;5924;51.398;7.088;2022-09-25T08:58:41;14.70;99.90
11736;DHT22;5924;51.398;7.088;2022-09-25T09:01:13;15.50;99.90
11736;DHT22;5924;51.398;7.088;2022-09-25T09:03:49;15.00;95.30
11736;DHT22;5924;51.398;7.088;2022-09-25T09:06:17;15.10;1.00
11736;DHT22;5924;51.398;7.088;2022-09-25T09:08:49;15.20;99.90
11736;DHT22;5924;51.398;7.088;2022-09-25T09:11:23;15.10;1.00
11736;DHT22;5924;51.398;7.088;2022-09-25T09:13:57;15.20;99.90
11736;DHT22;5924;51.398;7.088;2022-09-25T09:16:29;15.70;1.00
11736;DHT22;5924;51.398;7.088;2022-09-25T09:19:00;15.30;99.90
11736;DHT22;5924;51.398;7.088;2022-09-25T09:21:35;15.50;99.90
11736;DHT22;5924;51.398;7.088;2022-09-25T09:32:27;15.60;72.80
11736;DHT22;5924;51.398;7.088;2022-09-25T09:49:16;15.50;1.00
11736;DHT22;5924;51.398;7.088;2022-09-25T09:52:13;15.60;1.00
11736;DHT22;5924;51.398;7.088;2022-09-25T09:55:23;15.50;1.00
11736;DHT22;5924;51.398;7.088;2022-09-25T09:57:59;15.20;1.00
11736;DHT22;5924;51.398;7.088;2022-09-25T10:00:29;14.90;1.00
11736;DHT22;5924;51.398;7.088;2022-09-25T10:03:13;14.90;1.00
11736;DHT22;5924;51.398;7.088;2022-09-25T10:05:47;14.70;1.00
11736;DHT22;5924;51.398;7.088;2022-09-25T10:08:13;14.80;99.90
11736;DHT22;5924;51.398;7.088;2022-09-25T10:10:45;14.90;99.90
11736;DHT22;5924;51.398;7.088;2022-09-25T10:13:23;15.00;99.90
11736;DHT22;5924;51.398;7.088;2022-09-25T10:16:03;15.00;99.90
11736;DHT22;5924;51.398;7.088;2022-09-25T10:18:48;15.10;99.90
11736;DHT22;5924;51.398;7.088;2022-09-25T10:21:18;15.10;1.00
11736;DHT22;5924;51.398;7.088;2022-09-25T10:26:30;15.70;99.90
11736;DHT22;5924;51.398;7.088;2022-09-25T10:28:59;16.10;99.90
11736;DHT22;5924;51.398;7.088;2022-09-25T10:31:28;16.30;99.90
11736;DHT22;5924;51.398;7.088;2022-09-25T10:34:15;16.20;99.90
11736;DHT22;5924;51.398;7.088;2022-09-25T10:36:46;15.90;99.90
11736;DHT22;5924;51.398;7.088;2022-09-25T10:39:33;16.20;99.90
11736;DHT22;5924;51.398;7.088;2022-09-25T10:42:01;16.10;99.90
11736;DHT22;5924;51.398;7.088;2022-09-25T10:44:33;16.00;99.90
11736;DHT22;5924;51.398;7.088;2022-09-25T10:50:10;16.30;99.90
11736;DHT22;5924;51.398;7.088;2022-09-25T10:52:51;16.30;99.90
11736;DHT22;5924;51.398;7.088;2022-09-25T10:55:25;16.40;99.90
11736;DHT22;5924;51.398;7.088;2022-09-25T10:57:57;16.40;99.90
11736;DHT22;5924;51.398;7.088;2022-09-25T11:00:28;16.20;99.90
11736;DHT22;5924;51.398;7.088;2022-09-25T11:03:00;16.50;99.90
11736;DHT22;5924;51.398;7.088;2022-09-25T11:05:29;16.30;99.90
11736;DHT22;5924;51.398;7.088;2022-09-25T11:07:59;16.40;99.90
11736;DHT22;5924;51.398;7.088;2022-09-25T11:10:28;16.70;99.90
11736;DHT22;5924;51.398;7.088;2022-09-25T11:12:56;16.90;99.90
11736;DHT22;5924;51.398;7.088;2022-09-25T11:15:23;16.80;99.90
11736;DHT22;5924;51.398;7.088;2022-09-25T11:17:52;16.60;99.90
11736;DHT22;5924;51.398;7.088;2022-09-25T11:20:28;16.70;99.90
11736;DHT22;5924;51.398;7.088;2022-09-25T11:31:45;16.90;99.90
11736;DHT22;5924;51.398;7.088;2022-09-25T11:39:28;17.70;99.90
11736;DHT22;5924;51.398;7.088;2022-09-25T11:42:41;17.90;99.90
11736;DHT22;5924;51.398;7.088;2022-09-25T11:45:19;17.50;99.90
11736;DHT22;5924;51.398;7.088;2022-09-25T11:48:04;16.90;99.90
11736;DHT22;5924;51.398;7.088;2022-09-25T11:50:48;16.30;99.90
11736;DHT22;5924;51.398;7.088;2022-09-25T11:59:01;16.10;99.90
11736;DHT22;5924;51.398;7.088;2022-09-25T12:01:55;16.50;99.90
11736;DHT22;5924;51.398;7.088;2022-09-25T12:04:34;16.80;99.90
11736;DHT22;5924;51.398;7.088;2022-09-25T12:09:48;17.50;99.90
11736;DHT22;5924;51.398;7.088;2022-09-25T12:25:54;21.40;99.90
11736;DHT22;5924;51.398;7.088;2022-09-25T12:28:53;22.30;99.90
11736;DHT22;5924;51.398;7.088;2022-09-25T12:36:41;23.20;95.80
11736;DHT22;5924;51.398;7.088;2022-09-25T12:39:29;23.60;91.70
11736;DHT22;5924;51.398;7.088;2022-09-25T12:48:09;24.20;86.00
11736;DHT22;5924;51.398;7.088;2022-09-25T12:51:03;23.70;83.40
11736;DHT22;5924;51.398;7.088;2022-09-25T12:53:51;23.30;84.70
11736;DHT22;5924;51.398;7.088;2022-09-25T13:05:09;21.70;86.10
11736;DHT22;5924;51.398;7.088;2022-09-25T13:08:30;20.10;87.40
11736;DHT22;5924;51.398;7.088;2022-09-25T13:13:21;18.30;90.10
11736;DHT22;5924;51.398;7.088;2022-09-25T13:15:52;18.10;91.70
11736;DHT22;5924;51.398;7.088;2022-09-25T13:18:23;19.60;92.70
11736;DHT22;5924;51.398;7.088;2022-09-25T13:20:51;21.50;91.20
11736;DHT22;5924;51.398;7.088;2022-09-25T13:25:49;23.40;83.50
11736;DHT22;5924;51.398;7.088;2022-09-25T13:29:13;23.00;85.40
11736;DHT22;5924;51.398;7.088;2022-09-25T13:31:12;22.80;81.50
11736;DHT22;5924;51.398;7.088;2022-09-25T13:33:48;22.40;82.10
11736;DHT22;5924;51.398;7.088;2022-09-25T13:38:50;22.70;80.80
11736;DHT22;5924;51.398;7.088;2022-09-25T13:41:35;23.30;81.00
11736;DHT22;5924;51.398;7.088;2022-09-25T14:03:01;25.00;66.90
11736;DHT22;5924;51.398;7.088;2022-09-25T14:05:34;23.90;70.00
11736;DHT22;5924;51.398;7.088;2022-09-25T14:08:24;23.10;73.80
11736;DHT22;5924;51.398;7.088;2022-09-25T14:10:54;22.90;77.00
11736;DHT22;5924;51.398;7.088;2022-09-25T14:13:23;22.40;73.90
11736;DHT22;5924;51.398;7.088;2022-09-25T14:15:50;22.00;75.70
11736;DHT22;5924;51.398;7.088;2022-09-25T14:18:23;21.90;72.30
11736;DHT22;5924;51.398;7.088;2022-09-25T14:20:55;21.40;74.70
11736;DHT22;5924;51.398;7.088;2022-09-25T14:23:25;21.10;75.20
11736;DHT22;5924;51.398;7.088;2022-09-25T14:26:01;20.60;76.40
11736;DHT22;5924;51.398;7.088;2022-09-25T14:28:32;20.20;75.70
11736;DHT22;5924;51.398;7.088;2022-09-25T14:40:08;19.80;82.50
11736;DHT22;5924;51.398;7.088;2022-09-25T14:48:14;20.40;82.90
11736;DHT22;5924;51.398;7.088;2022-09-25T14:50:50;20.50;81.50
11736;DHT22;5924;51.398;7.088;2022-09-25T14:53:40;20.10;83.90
11736;DHT22;5924;51.398;7.088;2022-09-25T14:56:07;19.20;84.50
11736;DHT22;5924;51.398;7.088;2022-09-25T14:58:47;18.40;86.00
11736;DHT22;5924;51.398;7.088;2022-09-25T15:01:26;17.90;88.70
11736;DHT22;5924;51.398;7.088;2022-09-25T15:04:05;17.40;90.00
11736;DHT22;5924;51.398;7.088;2022-09-25T15:06:36;17.00;91.00
11736;DHT22;5924;51.398;7.088;2022-09-25T15:09:36;16.90;91.90
11736;DHT22;5924;51.398;7.088;2022-09-25T15:17:29;15.30;92.80
11736;DHT22;5924;51.398;7.088;2022-09-25T15:19:58;16.70;93.40
11736;DHT22;5924;51.398;7.088;2022-09-25T15:22:30;16.90;94.00
11736;DHT22;5924;51.398;7.088;2022-09-25T15:24:59;17.00;94.20
11736;DHT22;5924;51.398;7.088;2022-09-25T15:27:26;17.10;93.90
11736;DHT22;5924;51.398;7.088;2022-09-25T15:29:53;17.10;94.00
11736;DHT22;5924;51.398;7.088;2022-09-25T15:32:47;17.10;94.30
11736;DHT22;5924;51.398;7.088;2022-09-25T15:35:14;17.20;94.80
11736;DHT22;5924;51.398;7.088;2022-09-25T15:37:42;17.30;94.90
11736;DHT22;5924;51.398;7.088;2022-09-25T15:40:24;17.30;95.40
11736;DHT22;5924;51.398;7.088;2022-09-25T15:42:52;17.40;95.40
11736;DHT22;5924;51.398;7.088;2022-09-25T15:46:24;17.50;96.10
11736;DHT22;5924;51.398;7.088;2022-09-25T15:50:50;17.30;95.50
11736;DHT22;5924;51.398;7.088;2022-09-25T15:53:32;17.30;95.60
11736;DHT22;5924;51.398;7.088;2022-09-25T15:56:21;17.20;96.60
11736;DHT22;5924;51.398;7.088;2022-09-25T16:01:19;17.10;97.10
11736;DHT22;5924;51.398;7.088;2022-09-25T16:04:07;17.10;98.30
11736;DHT22;5924;51.398;7.088;2022-09-25T16:06:53;17.10;99.30
11736;DHT22;5924;51.398;7.088;2022-09-25T16:09:20;17.30;99.00
11736;DHT22;5924;51.398;7.088;2022-09-25T16:11:46;17.40;99.80
11736;DHT22;5924;51.398;7.088;2022-09-25T16:14:29;17.50;99.90
11736;DHT22;5924;51.398;7.088;2022-09-25T16:16:56;17.80;99.90
11736;DHT22;5924;51.398;7.088;2022-09-25T16:21:52;18.10;99.10
11736;DHT22;5924;51.398;7.088;2022-09-25T16:24:26;17.70;98.50
11736;DHT22;5924;51.398;7.088;2022-09-25T16:26:58;17.10;99.20
11736;DHT22;5924;51.398;7.088;2022-09-25T16:29:27;16.60;99.90
11736;DHT22;5924;51.398;7.088;2022-09-25T16:31:53;16.10;99.90
11736;DHT22;5924;51.398;7.088;2022-09-25T16:34:30;15.80;99.90
11736;DHT22;5924;51.398;7.088;2022-09-25T16:36:59;15.50;99.90
11736;DHT22;5924;51.398;7.088;2022-09-25T16:41:51;15.00;99.90
11736;DHT22;5924;51.398;7.088;2022-09-25T16:44:35;14.90;99.90
11736;DHT22;5924;51.398;7.088;2022-09-25T16:47:13;14.70;99.90
11736;DHT22;5924;51.398;7.088;2022-09-25T16:49:40;14.50;99.90
11736;DHT22;5924;51.398;7.088;2022-09-25T16:52:14;15.30;99.90
11736;DHT22;5924;51.398;7.088;2022-09-25T16:54:44;14.30;99.90
11736;DHT22;5924;51.398;7.088;2022-09-25T16:57:09;14.20;99.90
11736;DHT22;5924;51.398;7.088;2022-09-25T16:59:41;14.10;99.90
11736;DHT22;5924;51.398;7.088;2022-09-25T17:02:37;14.50;99.90
11736;DHT22;5924;51.398;7.088;2022-09-25T17:05:12;13.90;99.90
11736;DHT22;5924;51.398;7.088;2022-09-25T17:07:43;13.80;99.90
11736;DHT22;5924;51.398;7.088;2022-09-25T17:10:12;14.50;99.90
11736;DHT22;5924;51.398;7.088;2022-09-25T17:12:40;13.70;99.90
11736;DHT22;5924;51.398;7.088;2022-09-25T17:15:12;14.50;99.90
11736;DHT22;5924;51.398;7.088;2022-09-25T17:17:39;13.50;99.90
11736;DHT22;5924;51.398;7.088;2022-09-25T17:20:05;14.00;99.90
11736;DHT22;5924;51.398;7.088;2022-09-25T17:22:30;13.40;1.00
11736;DHT22;5924;51.398;7.088;2022-09-25T17:25:00;13.30;99.90
11736;DHT22;5924;51.398;7.088;2022-09-25T17:27:27;13.30;99.90
11736;DHT22;5924;51.398;7.088;2022-09-25T17:29:52;13.20;99.90
11736;DHT22;5924;51.398;7.088;2022-09-25T17:32:18;13.10;1.00
11736;DHT22;5924;51.398;7.088;2022-09-25T17:34:44;13.80;1.00
11736;DHT22;5924;51.398;7.088;2022-09-25T17:37:10;12.90;1.00
11736;DHT22;5924;51.398;7.088;2022-09-25T17:39:37;12.70;99.90
11736;DHT22;5924;51.398;7.088;2022-09-25T17:42:03;12.60;99.90
11736;DHT22;5924;51.398;7.088;2022-09-25T17:44:29;12.50;99.90
11736;DHT22;5924;51.398;7.088;2022-09-25T17:46:55;13.40;99.90
11736;DHT22;5924;51.398;7.088;2022-09-25T17:49:21;12.80;99.90
11736;DHT22;5924;51.398;7.088;2022-09-25T17:51:48;12.20;1.00
11736;DHT22;5924;51.398;7.088;2022-09-25T17:54:14;12.60;1.00
11736;DHT22;5924;51.398;7.088;2022-09-25T17:56:41;13.90;1.00
11736;DHT22;5924;51.398;7.088;2022-09-25T17:59:09;13.90;1.00
11736;DHT22;5924;51.398;7.088;2022-09-25T18:01:36;12.90;1.00
11736;DHT22;5924;51.398;7.088;2022-09-25T18:04:27;11.90;1.00
11736;DHT22;5924;51.398;7.088;2022-09-25T18:06:52;12.60;1.00
11736;DHT22;5924;51.398;7.088;2022-09-25T18:09:18;11.90;1.00
11736;DHT22;5924;51.398;7.088;2022-09-25T18:11:43;11.80;1.00
11736;DHT22;5924;51.398;7.088;2022-09-25T18:14:11;11.80;1.00
11736;DHT22;5924;51.398;7.088;2022-09-25T18:16:39;12.00;1.00
11736;DHT22;5924;51.398;7.088;2022-09-25T18:19:05;11.70;1.00
11736;DHT22;5924;51.398;7.088;2022-09-25T18:21:49;12.50;1.00
11736;DHT22;5924;51.398;7.088;2022-09-25T18:24:33;11.60;1.00
11736;DHT22;5924;51.398;7.088;2022-09-25T18:26:59;11.60;1.00
11736;DHT22;5924;51.398;7.088;2022-09-25T18:31:51;11.50;1.00
11736;DHT22;5924;51.398;7.088;2022-09-25T18:34:16;14.50;1.00
11736;DHT22;5924;51.398;7.088;2022-09-25T18:36:42;11.40;1.00
11736;DHT22;5924;51.398;7.088;2022-09-25T18:39:08;11.50;1.00
11736;DHT22;5924;51.398;7.088;2022-09-25T18:41:38;12.90;1.00
11736;DHT22;5924;51.398;7.088;2022-09-25T18:44:06;11.70;1.00
11736;DHT22;5924;51.398;7.088;2022-09-25T18:46:35;11.40;1.00
11736;DHT22;5924;51.398;7.088;2022-09-25T18:49:03;12.00;1.00
11736;DHT22;5924;51.398;7.088;2022-09-25T18:51:29;11.40;1.00
11736;DHT22;5924;51.398;7.088;2022-09-25T18:53:54;11.00;1.00
11736;DHT22;5924;51.398;7.088;2022-09-25T18:56:20;12.80;1.00
11736;DHT22;5924;51.398;7.088;2022-09-25T18:58:46;8.20;1.00
11736;DHT22;5924;51.398;7.088;2022-09-25T19:03:38;10.90;1.00
11736;DHT22;5924;51.398;7.088;2022-09-25T19:06:04;11.60;1.00
11736;DHT22;5924;51.398;7.088;2022-09-25T19:08:31;10.70;5.20